Time;durP1;ratioP1;P1;durP2;ratioP2;P2;SDS_P1;SDS_P2;PMS_P1;PMS_P2;Temp;Humidity;BMP_temperature;BMP_pressure;BME280_temperature;BME280_humidity;BME280_pressure;Samples;Min_cycle;Max_cycle;Signal;HPM_P1;HPM_P2
2023/02/14 00:02:18;;;;;;;27.17;18.83;;;8.20;99.90;;;;;;5057384;28;20108;-90
2023/02/14 00:04:45;;;;;;;29.00;19.30;;;8.20;99.90;;;;;;5040056;28;20469;-91
2023/02/14 00:07:14;;;;;;;24.65;17.58;;;8.10;99.90;;;;;;5040376;28;20025;-91
2023/02/14 00:09:39;;;;;;;25.60;17.30;;;8.10;99.90;;;;;;5040139;28;20040;-91
2023/02/14 00:12:06;;;;;;;28.88;18.73;;;8.10;99.90;;;;;;5056147;28;20028;-92
2023/02/14 00:17:17;;;;;;;29.60;19.52;;;8.00;99.90;;;;;;5074770;28;20048;-90
2023/02/14 00:19:42;;;;;;;25.35;17.35;;;8.00;99.90;;;;;;5056403;28;20021;-91
2023/02/14 00:22:10;;;;;;;26.42;18.20;;;8.00;99.90;;;;;;5039943;28;20035;-91
2023/02/14 00:24:36;;;;;;;25.65;17.85;;;7.90;99.90;;;;;;5056133;28;20070;-91
2023/02/14 00:27:02;;;;;;;27.00;18.08;;;7.90;99.90;;;;;;5042515;28;20036;-92
2023/02/14 00:29:31;;;;;;;25.30;18.20;;;7.90;99.90;;;;;;5060029;28;20078;-91
2023/02/14 00:31:57;;;;;;;25.27;17.77;;;7.90;99.90;;;;;;5061244;28;20031;-91
2023/02/14 00:34:23;;;;;;;24.60;16.90;;;7.80;99.90;;;;;;5059896;28;20069;-91
2023/02/14 00:36:49;;;;;;;26.77;17.65;;;7.80;99.90;;;;;;5060155;28;20098;-90
2023/02/14 00:39:16;;;;;;;27.70;18.35;;;7.80;99.90;;;;;;5060313;28;20479;-91
2023/02/14 00:41:41;;;;;;;26.63;17.67;;;7.80;99.90;;;;;;5059894;28;20063;-92
2023/02/14 00:44:09;;;;;;;26.77;17.65;;;7.80;99.90;;;;;;5059843;28;20032;-91
2023/02/14 00:46:35;;;;;;;26.35;17.45;;;7.70;99.90;;;;;;5059804;28;20055;-91
2023/02/14 00:49:01;;;;;;;24.58;17.38;;;7.70;99.90;;;;;;5059854;28;20064;-91
2023/02/14 00:51:27;;;;;;;24.83;16.65;;;7.70;99.90;;;;;;5059682;28;20016;-91
2023/02/14 00:53:56;;;;;;;24.38;17.15;;;7.70;99.90;;;;;;5062087;28;20049;-91
2023/02/14 00:56:22;;;;;;;24.50;17.08;;;7.60;99.90;;;;;;5059504;28;20033;-91
2023/02/14 00:58:50;;;;;;;24.73;17.60;;;7.60;99.90;;;;;;5043448;28;20025;-91
2023/02/14 01:01:18;;;;;;;26.75;17.42;;;7.60;99.90;;;;;;5059637;28;20055;-90
2023/02/14 01:03:44;;;;;;;26.40;17.40;;;7.60;99.90;;;;;;5059376;28;20035;-92
2023/02/14 01:06:10;;;;;;;23.95;15.93;;;7.60;99.90;;;;;;5042691;28;20033;-91
2023/02/14 01:08:40;;;;;;;25.15;16.73;;;7.60;99.90;;;;;;5059303;28;20165;-91
2023/02/14 01:11:20;;;;;;;24.52;16.30;;;7.50;99.90;;;;;;5042734;28;20093;-91
2023/02/14 01:13:47;;;;;;;24.95;16.33;;;7.50;99.90;;;;;;5043128;28;20111;-91
2023/02/14 01:16:16;;;;;;;25.05;16.67;;;7.50;99.90;;;;;;5058834;28;20028;-91
2023/02/14 01:18:44;;;;;;;26.08;17.02;;;7.50;99.90;;;;;;5059803;28;20054;-91
2023/02/14 01:21:20;;;;;;;26.05;16.38;;;7.50;99.90;;;;;;5059890;28;20036;-91
2023/02/14 01:23:49;;;;;;;25.17;17.17;;;7.40;99.90;;;;;;5058898;28;20020;-91
2023/02/14 01:26:18;;;;;;;24.20;16.38;;;7.40;99.90;;;;;;5058737;28;20025;-90
2023/02/14 01:28:44;;;;;;;26.05;17.00;;;7.40;99.90;;;;;;5058876;28;20032;-90
2023/02/14 01:31:23;;;;;;;22.40;15.90;;;7.40;99.90;;;;;;5058855;28;20028;-91
2023/02/14 01:33:50;;;;;;;24.50;15.52;;;7.30;99.90;;;;;;5059074;28;20021;-90
2023/02/14 01:36:23;;;;;;;26.38;15.95;;;7.30;99.90;;;;;;5058804;28;20020;-90
2023/02/14 01:39:06;;;;;;;24.70;16.05;;;7.30;99.90;;;;;;5058038;28;20104;-91
2023/02/14 01:41:34;;;;;;;27.00;16.98;;;7.30;99.90;;;;;;5058627;28;20021;-90
2023/02/14 01:44:18;;;;;;;25.55;16.60;;;7.20;99.90;;;;;;5057980;28;20031;-91
2023/02/14 01:46:48;;;;;;;22.60;15.70;;;7.20;99.90;;;;;;5058055;28;20031;-90
2023/02/14 01:49:19;;;;;;;25.10;16.17;;;7.20;99.90;;;;;;5041546;28;20041;-91
2023/02/14 01:52:20;;;;;;;26.10;17.05;;;7.10;99.90;;;;;;5058990;28;20025;-91
2023/02/14 01:55:08;;;;;;;22.95;15.75;;;7.10;99.90;;;;;;5014578;28;20446;-90
2023/02/14 01:57:46;;;;;;;27.75;16.40;;;7.10;99.90;;;;;;5055087;28;20037;-91
2023/02/14 02:03:04;;;;;;;23.92;14.85;;;7.00;99.90;;;;;;5076206;28;20565;-92
2023/02/14 02:05:30;;;;;;;27.52;16.10;;;7.00;99.90;;;;;;5058279;28;20035;-90
2023/02/14 02:07:59;;;;;;;22.88;15.82;;;7.00;99.90;;;;;;5058614;28;20028;-90
2023/02/14 02:10:25;;;;;;;24.08;15.52;;;7.00;99.90;;;;;;5058086;28;20039;-91
2023/02/14 02:12:54;;;;;;;23.70;15.65;;;6.90;99.90;;;;;;5058215;28;20375;-90
2023/02/14 02:15:28;;;;;;;24.73;15.93;;;6.90;99.90;;;;;;5041785;28;20502;-91
2023/02/14 02:18:07;;;;;;;24.27;16.23;;;6.90;99.90;;;;;;5061412;28;20024;-90
2023/02/14 02:21:05;;;;;;;22.20;15.35;;;6.90;99.90;;;;;;5058424;28;20036;-90
2023/02/14 02:24:03;;;;;;;26.95;16.95;;;6.80;99.90;;;;;;5058026;28;20020;-90
2023/02/14 02:26:54;;;;;;;24.33;15.75;;;6.80;99.90;;;;;;5074982;28;20055;-91
2023/02/14 02:29:56;;;;;;;23.67;15.95;;;6.80;99.90;;;;;;5057526;28;20064;-91
2023/02/14 02:32:49;;;;;;;23.45;15.57;;;6.70;99.90;;;;;;5074837;28;20044;-91
2023/02/14 02:35:29;;;;;;;24.23;15.52;;;6.70;99.90;;;;;;5074573;28;20063;-90
2023/02/14 02:38:16;;;;;;;20.40;14.00;;;6.70;99.90;;;;;;5058227;28;20021;-91
2023/02/14 02:40:59;;;;;;;27.40;17.38;;;6.60;99.90;;;;;;5058240;28;20028;-91
2023/02/14 02:43:30;;;;;;;26.08;16.17;;;6.60;99.90;;;;;;5075832;28;20032;-91
2023/02/14 02:56:44;;;;;;;22.20;14.30;;;6.50;99.90;;;;;;5095835;28;20136;-91
2023/02/14 02:58:22;;;;;;;22.13;14.13;;;6.50;99.90;;;;;;5096332;28;20040;-91
2023/02/14 03:00:51;;;;;;;21.83;14.27;;;6.40;99.90;;;;;;5075012;28;20024;-90
2023/02/14 03:06:04;;;;;;;23.45;14.18;;;6.40;99.90;;;;;;5088998;28;20032;-91
2023/02/14 03:08:30;;;;;;;25.13;14.90;;;6.40;99.90;;;;;;5041958;28;20468;-90
2023/02/14 03:10:59;;;;;;;20.60;14.18;;;6.30;99.90;;;;;;5040749;28;20547;-90
2023/02/14 03:13:40;;;;;;;22.58;13.35;;;6.30;99.90;;;;;;5058414;28;20037;-91
2023/02/14 03:16:30;;;;;;;21.15;13.35;;;6.30;99.90;;;;;;5058668;28;20115;-91
2023/02/14 03:19:14;;;;;;;21.13;12.93;;;6.30;99.90;;;;;;5074988;28;20056;-91
2023/02/14 03:21:58;;;;;;;22.25;13.32;;;6.30;99.90;;;;;;5074400;28;20472;-92
2023/02/14 03:24:45;;;;;;;24.13;13.93;;;6.30;99.90;;;;;;5057124;28;20061;-91
2023/02/14 03:27:31;;;;;;;21.10;13.50;;;6.20;99.90;;;;;;5057089;28;20025;-91
2023/02/14 03:30:16;;;;;;;20.40;12.80;;;6.20;99.90;;;;;;5073952;28;20032;-92
2023/02/14 03:32:50;;;;;;;20.52;12.85;;;6.10;99.90;;;;;;5074033;28;20093;-91
2023/02/14 03:35:18;;;;;;;20.10;13.48;;;6.10;99.90;;;;;;5057704;28;20036;-91
2023/02/14 03:38:09;;;;;;;23.48;14.48;;;6.10;99.90;;;;;;5074660;28;20021;-90
2023/02/14 03:40:48;;;;;;;18.88;12.52;;;6.10;99.90;;;;;;5074706;28;20025;-91
2023/02/14 03:43:29;;;;;;;23.20;14.23;;;6.00;99.90;;;;;;5058127;28;20020;-91
2023/02/14 03:46:25;;;;;;;21.55;14.00;;;6.00;99.90;;;;;;5061822;28;20521;-90
2023/02/14 03:48:53;;;;;;;21.98;13.20;;;6.00;99.90;;;;;;5052722;28;20082;-91
2023/02/14 03:51:27;;;;;;;20.10;12.90;;;6.00;99.90;;;;;;5059165;28;20021;-92
2023/02/14 03:54:01;;;;;;;19.55;13.60;;;6.00;99.90;;;;;;5059580;28;20052;-91
2023/02/14 03:56:49;;;;;;;20.23;12.40;;;5.90;99.90;;;;;;5077473;28;20060;-91
2023/02/14 03:59:19;;;;;;;22.27;13.30;;;5.90;99.90;;;;;;5060451;28;20028;-91
2023/02/14 04:01:54;;;;;;;21.95;13.43;;;5.90;99.90;;;;;;5063172;28;20376;-91
2023/02/14 04:04:25;;;;;;;21.80;13.93;;;5.90;99.90;;;;;;5066521;28;20108;-91
2023/02/14 04:06:51;;;;;;;19.67;12.85;;;5.80;99.90;;;;;;5063187;28;20017;-91
2023/02/14 04:09:17;;;;;;;19.05;13.02;;;5.80;99.90;;;;;;5072514;28;20028;-90
2023/02/14 04:11:45;;;;;;;18.10;12.18;;;5.80;99.90;;;;;;5066042;28;20017;-91
2023/02/14 04:14:11;;;;;;;16.92;11.50;;;5.80;99.90;;;;;;5057512;28;20028;-91
2023/02/14 04:19:23;;;;;;;18.27;12.07;;;5.70;99.90;;;;;;5099176;28;20055;-91
2023/02/14 04:21:53;;;;;;;19.52;13.15;;;5.70;99.90;;;;;;5099754;28;20071;-89
2023/02/14 04:24:19;;;;;;;21.00;12.43;;;5.70;99.90;;;;;;5082021;28;20004;-92
2023/02/14 04:29:45;;;;;;;;;;;;;;;;;;;;;
2023/02/14 04:32:17;;;;;;;18.33;11.98;;;5.60;99.90;;;;;;5077713;28;20060;-91
2023/02/14 04:34:43;;;;;;;19.77;12.95;;;5.60;99.90;;;;;;5061880;28;20054;-91
2023/02/14 04:37:09;;;;;;;18.67;12.45;;;5.60;99.90;;;;;;5060893;28;20415;-91
2023/02/14 04:39:35;;;;;;;19.40;12.57;;;5.60;99.90;;;;;;5060387;28;20036;-91
2023/02/14 04:42:04;;;;;;;20.95;13.25;;;5.50;99.90;;;;;;5078330;28;20020;-91
2023/02/14 04:44:36;;;;;;;19.13;11.88;;;5.50;99.90;;;;;;5059896;28;20025;-92
2023/02/14 04:47:03;;;;;;;18.35;11.85;;;5.50;99.90;;;;;;5061951;28;20042;-90
2023/02/14 04:49:29;;;;;;;19.60;12.70;;;5.50;99.90;;;;;;5062097;28;20039;-90
2023/02/14 04:51:55;;;;;;;19.63;11.93;;;5.50;99.90;;;;;;5059850;28;20028;-89
2023/02/14 04:54:21;;;;;;;18.02;11.85;;;5.40;99.90;;;;;;5060379;28;20100;-91
2023/02/14 04:56:47;;;;;;;21.63;12.48;;;5.40;99.90;;;;;;5043354;28;20448;-90
2023/02/14 04:59:16;;;;;;;21.15;12.90;;;5.40;99.90;;;;;;5043481;28;20024;-90
2023/02/14 05:01:41;;;;;;;18.38;11.65;;;5.40;99.90;;;;;;5059807;28;20118;-90
2023/02/14 05:04:07;;;;;;;20.45;11.88;;;5.40;99.90;;;;;;5077222;28;20583;-91
2023/02/14 05:06:33;;;;;;;19.95;12.48;;;5.30;99.90;;;;;;5071158;28;20037;-89
2023/02/14 05:09:02;;;;;;;17.40;11.80;;;5.40;99.90;;;;;;5076869;28;20031;-91
2023/02/14 05:11:28;;;;;;;19.38;12.23;;;5.30;99.90;;;;;;5058826;28;20096;-89
2023/02/14 05:13:54;;;;;;;18.50;12.25;;;5.30;99.90;;;;;;5074342;28;20111;-89
2023/02/14 05:16:21;;;;;;;17.17;11.48;;;5.30;99.90;;;;;;5068942;28;20024;-91
2023/02/14 05:18:47;;;;;;;19.13;11.82;;;5.30;99.90;;;;;;5043357;28;20093;-90
2023/02/14 05:21:13;;;;;;;17.98;12.05;;;5.20;99.90;;;;;;5059501;28;20024;-90
2023/02/14 05:23:38;;;;;;;18.05;11.82;;;5.20;99.90;;;;;;5060463;28;20027;-90
2023/02/14 05:26:04;;;;;;;21.17;12.00;;;5.20;99.90;;;;;;5088761;28;20024;-89
2023/02/14 05:28:40;;;;;;;19.33;12.10;;;5.20;99.90;;;;;;5077278;28;20040;-92
2023/02/14 05:31:06;;;;;;;19.90;11.70;;;5.20;99.90;;;;;;5092698;28;20032;-91
2023/02/14 05:33:32;;;;;;;17.67;11.20;;;5.10;99.90;;;;;;5090354;28;20024;-90
2023/02/14 05:35:59;;;;;;;19.20;11.50;;;5.10;99.90;;;;;;5059505;28;20111;-92
2023/02/14 05:38:25;;;;;;;16.63;10.98;;;5.10;99.90;;;;;;5059427;28;20078;-92
2023/02/14 05:40:51;;;;;;;16.45;11.13;;;5.10;99.90;;;;;;5042763;28;20028;-91
2023/02/14 05:43:17;;;;;;;18.38;11.18;;;5.10;99.90;;;;;;5058533;28;20452;-91
2023/02/14 05:45:50;;;;;;;18.50;11.35;;;5.00;99.90;;;;;;5042288;28;20029;-91
2023/02/14 05:48:19;;;;;;;17.42;11.57;;;5.10;99.90;;;;;;5059367;28;20016;-91
2023/02/14 05:50:45;;;;;;;18.52;11.43;;;5.00;99.90;;;;;;5059166;28;20025;-92
2023/02/14 05:53:11;;;;;;;16.55;11.23;;;5.00;99.90;;;;;;5059188;28;20444;-91
2023/02/14 05:55:38;;;;;;;15.85;9.98;;;5.00;99.90;;;;;;5042603;28;20476;-92
2023/02/14 05:58:03;;;;;;;18.67;11.05;;;4.90;99.90;;;;;;5076147;28;20578;-93
2023/02/14 06:00:29;;;;;;;16.10;10.77;;;4.90;99.90;;;;;;5058509;28;20037;-92
2023/02/14 06:02:58;;;;;;;20.70;11.90;;;4.90;99.90;;;;;;5058789;28;20119;-91
2023/02/14 06:05:25;;;;;;;18.20;11.07;;;4.90;99.90;;;;;;5061196;28;20023;-91
2023/02/14 06:07:52;;;;;;;16.08;10.88;;;4.80;99.90;;;;;;5066486;28;20100;-91
2023/02/14 06:10:19;;;;;;;17.30;11.30;;;4.80;99.90;;;;;;5091895;28;20112;-90
2023/02/14 06:12:47;;;;;;;20.15;11.48;;;4.80;99.90;;;;;;5097138;28;20035;-90
2023/02/14 06:15:12;;;;;;;19.73;11.68;;;4.80;99.90;;;;;;5081754;28;20027;-91
2023/02/14 06:17:38;;;;;;;21.25;11.82;;;4.70;99.90;;;;;;5081532;28;20013;-92
2023/02/14 06:20:05;;;;;;;16.70;11.73;;;4.70;99.90;;;;;;5080306;28;20039;-90
2023/02/14 06:22:31;;;;;;;16.98;11.38;;;4.70;99.90;;;;;;5078537;28;20046;-90
2023/02/14 06:24:56;;;;;;;18.45;12.25;;;4.70;99.90;;;;;;5072779;28;20020;-89
2023/02/14 06:27:22;;;;;;;18.13;11.95;;;4.70;99.90;;;;;;5060846;28;20017;-89
2023/02/14 06:29:48;;;;;;;21.77;12.02;;;4.70;99.90;;;;;;5059275;28;20032;-89
2023/02/14 06:32:14;;;;;;;17.73;11.40;;;4.70;99.90;;;;;;5058480;28;20107;-90
2023/02/14 06:34:39;;;;;;;16.60;10.68;;;4.60;99.90;;;;;;5058497;28;20105;-89
2023/02/14 06:37:06;;;;;;;20.35;12.73;;;4.60;99.90;;;;;;5057958;28;20457;-90
2023/02/14 06:39:32;;;;;;;22.15;12.07;;;4.60;99.90;;;;;;5041175;28;20112;-91
2023/02/14 06:41:58;;;;;;;21.55;12.27;;;4.60;99.90;;;;;;5075618;28;20020;-90
2023/02/14 06:44:24;;;;;;;19.73;11.95;;;4.60;99.90;;;;;;5057921;28;20077;-89
2023/02/14 06:46:52;;;;;;;17.75;11.73;;;4.50;99.90;;;;;;5057410;28;20032;-89
2023/02/14 06:49:18;;;;;;;19.63;12.00;;;4.50;99.90;;;;;;5058216;28;20025;-90
2023/02/14 06:51:44;;;;;;;19.48;12.63;;;4.50;99.90;;;;;;5058413;28;20028;-91
2023/02/14 06:54:10;;;;;;;22.38;13.38;;;4.50;99.90;;;;;;5057810;28;20027;-90
2023/02/14 06:56:38;;;;;;;19.20;11.55;;;4.50;99.90;;;;;;5056887;28;20048;-91
2023/02/14 06:59:04;;;;;;;19.63;12.23;;;4.40;99.90;;;;;;5041418;28;20024;-90
2023/02/14 07:01:33;;;;;;;25.13;12.32;;;4.40;99.90;;;;;;5057628;28;20027;-90
2023/02/14 07:03:59;;;;;;;21.60;12.35;;;4.40;99.90;;;;;;5058577;28;20028;-90
2023/02/14 07:06:25;;;;;;;19.20;11.50;;;4.40;99.90;;;;;;5058020;28;20123;-90
2023/02/14 07:08:53;;;;;;;16.67;11.43;;;4.40;99.90;;;;;;5058558;28;20025;-90
2023/02/14 07:11:19;;;;;;;24.63;14.70;;;4.40;99.90;;;;;;5043254;28;20024;-89
2023/02/14 07:13:54;;;;;;;22.08;14.10;;;4.40;99.90;;;;;;5059129;28;20029;-91
2023/02/14 07:16:24;;;;;;;22.83;13.23;;;4.30;99.90;;;;;;5057900;28;20029;-91
2023/02/14 07:18:52;;;;;;;20.08;13.05;;;4.30;99.90;;;;;;5057708;28;20035;-90
2023/02/14 07:21:18;;;;;;;20.40;13.25;;;4.30;99.90;;;;;;5057004;28;20017;-90
2023/02/14 07:23:46;;;;;;;19.92;12.77;;;4.30;99.90;;;;;;5057191;28;20032;-90
2023/02/14 07:26:16;;;;;;;41.60;14.80;;;4.30;99.90;;;;;;5057546;28;20025;-91
2023/02/14 07:28:44;;;;;;;21.50;13.02;;;4.30;99.90;;;;;;5041183;28;20025;-90
2023/02/14 07:31:10;;;;;;;20.67;12.73;;;4.30;99.90;;;;;;5040494;28;20033;-90
2023/02/14 07:33:37;;;;;;;22.52;13.02;;;4.30;99.90;;;;;;5057654;28;20101;-90
2023/02/14 07:36:05;;;;;;;21.38;13.43;;;4.30;99.90;;;;;;5058576;28;20035;-91
2023/02/14 07:38:30;;;;;;;21.40;12.48;;;4.30;99.90;;;;;;5061177;28;20017;-91
2023/02/14 07:40:58;;;;;;;23.05;12.95;;;4.30;99.90;;;;;;5061317;28;20052;-90
2023/02/14 07:43:24;;;;;;;20.67;12.32;;;4.30;99.90;;;;;;5044934;28;20028;-90
2023/02/14 07:45:50;;;;;;;21.15;13.25;;;4.30;99.90;;;;;;5061328;28;20430;-90
2023/02/14 07:48:16;;;;;;;23.25;12.65;;;4.30;99.90;;;;;;5042957;28;20097;-90
2023/02/14 07:50:42;;;;;;;20.60;13.00;;;4.30;99.90;;;;;;5034924;28;20086;-90
2023/02/14 07:53:07;;;;;;;18.67;12.23;;;4.30;99.90;;;;;;5025540;28;20026;-91
2023/02/14 07:55:33;;;;;;;20.55;12.85;;;4.40;99.90;;;;;;5056182;28;20408;-90
2023/02/14 07:58:00;;;;;;;23.13;14.43;;;4.40;99.90;;;;;;5058630;28;20032;-89
2023/02/14 08:00:26;;;;;;;22.10;14.63;;;4.40;99.90;;;;;;5067537;28;20036;-90
2023/02/14 08:02:54;;;;;;;25.73;13.77;;;4.40;99.90;;;;;;5061724;28;20024;-90
2023/02/14 08:05:26;;;;;;;22.42;13.52;;;4.40;99.90;;;;;;5065410;28;20044;-89
2023/02/14 08:07:51;;;;;;;22.70;14.52;;;4.50;99.90;;;;;;5060851;28;20021;-89
2023/02/14 08:10:19;;;;;;;23.45;14.13;;;4.50;99.90;;;;;;5061642;28;20039;-90
2023/02/14 08:13:00;;;;;;;22.05;14.45;;;4.50;99.90;;;;;;5074322;28;20032;-90
2023/02/14 08:18:29;;;;;;;24.63;14.52;;;4.60;99.90;;;;;;5079216;28;20117;-90
2023/02/14 08:21:03;;;;;;;21.90;14.65;;;4.60;99.90;;;;;;5082274;28;20035;-90
2023/02/14 08:23:29;;;;;;;22.15;14.93;;;4.60;99.90;;;;;;5075375;28;20031;-90
2023/02/14 08:25:56;;;;;;;23.42;14.77;;;4.70;99.90;;;;;;5050109;28;20028;-90
2023/02/14 08:28:22;;;;;;;22.27;14.02;;;4.70;99.90;;;;;;5067994;28;20095;-90
2023/02/14 08:30:48;;;;;;;24.73;15.73;;;4.70;99.90;;;;;;5061683;28;20464;-91
2023/02/14 08:33:13;;;;;;;22.30;14.77;;;4.70;99.90;;;;;;5076597;28;20021;-90
2023/02/14 08:35:39;;;;;;;25.27;15.60;;;4.80;99.90;;;;;;5044230;28;20029;-90
2023/02/14 08:38:05;;;;;;;24.58;14.43;;;4.80;99.90;;;;;;5042726;28;20025;-91
2023/02/14 08:40:32;;;;;;;23.63;15.45;;;4.90;99.90;;;;;;5061916;28;20028;-91
2023/02/14 08:42:58;;;;;;;23.90;14.68;;;4.90;99.90;;;;;;5061525;28;20048;-90
2023/02/14 08:45:24;;;;;;;30.40;15.57;;;5.00;99.90;;;;;;5049029;28;20059;-90
2023/02/14 08:47:50;;;;;;;24.25;15.95;;;5.00;99.90;;;;;;5044449;28;20036;-90
2023/02/14 08:50:17;;;;;;;27.52;16.80;;;5.10;99.90;;;;;;5070185;28;20040;-89
2023/02/14 08:52:43;;;;;;;26.05;16.35;;;5.20;99.90;;;;;;5065986;28;20024;-88
2023/02/14 08:55:10;;;;;;;29.42;17.83;;;5.20;99.90;;;;;;5077220;28;20056;-89
2023/02/14 08:57:35;;;;;;;28.52;16.42;;;5.20;99.90;;;;;;5041603;28;20104;-89
2023/02/14 09:00:03;;;;;;;25.48;14.90;;;5.30;99.90;;;;;;5041049;28;20044;-89
2023/02/14 09:02:32;;;;;;;26.58;16.77;;;5.30;99.90;;;;;;5064671;28;20025;-89
2023/02/14 09:04:57;;;;;;;28.98;16.40;;;5.40;99.90;;;;;;5059325;28;20035;-88
2023/02/14 09:07:23;;;;;;;31.77;17.60;;;5.40;99.90;;;;;;5047939;28;20446;-88
2023/02/14 09:09:49;;;;;;;28.17;16.63;;;5.50;99.90;;;;;;5042088;28;20125;-89
2023/02/14 09:12:14;;;;;;;27.83;16.70;;;5.60;99.90;;;;;;5057499;28;20465;-89
2023/02/14 09:14:45;;;;;;;28.92;16.25;;;5.60;99.90;;;;;;5041241;28;20032;-88
2023/02/14 09:17:12;;;;;;;23.48;16.17;;;5.70;99.90;;;;;;5074518;28;20464;-88
2023/02/14 09:19:38;;;;;;;24.65;16.13;;;5.80;99.90;;;;;;5078523;28;20032;-88
2023/02/14 09:22:06;;;;;;;25.75;16.70;;;5.80;99.90;;;;;;5024582;28;20031;-90
2023/02/14 09:24:34;;;;;;;28.88;16.70;;;5.90;99.90;;;;;;5058732;28;20081;-88
2023/02/14 09:27:00;;;;;;;26.85;16.58;;;5.90;99.90;;;;;;5069209;28;20017;-90
2023/02/14 09:29:27;;;;;;;25.83;16.23;;;6.00;99.90;;;;;;5083628;28;20036;-90
2023/02/14 09:31:58;;;;;;;26.70;17.13;;;6.10;99.90;;;;;;5092821;28;20205;-93
2023/02/14 09:39:57;;;;;;;26.90;15.63;;;6.30;99.90;;;;;;5098673;28;20031;-91
2023/02/14 09:42:43;;;;;;;27.60;17.40;;;6.30;99.90;;;;;;5072277;28;20020;-89
2023/02/14 09:45:19;;;;;;;28.77;17.60;;;6.40;99.90;;;;;;5059385;28;20024;-89
2023/02/14 09:48:02;;;;;;;23.33;15.63;;;6.40;99.90;;;;;;5060473;28;20377;-88
2023/02/14 09:50:48;;;;;;;27.20;16.85;;;6.50;99.90;;;;;;5073005;28;20033;-87
2023/02/14 09:53:19;;;;;;;27.10;17.38;;;6.60;99.90;;;;;;5057851;28;20033;-89
2023/02/14 09:56:03;;;;;;;29.90;17.63;;;6.60;99.90;;;;;;5065011;28;20063;-91
2023/02/14 09:58:32;;;;;;;27.92;16.88;;;6.70;99.90;;;;;;5067632;28;20094;-90
2023/02/14 10:01:05;;;;;;;27.33;17.08;;;6.80;99.90;;;;;;5078331;28;20392;-89
2023/02/14 10:03:42;;;;;;;26.55;16.73;;;6.90;99.90;;;;;;5061709;28;20025;-88
2023/02/14 10:06:25;;;;;;;25.05;17.10;;;7.00;99.90;;;;;;5059816;28;20033;-88
2023/02/14 10:09:00;;;;;;;26.17;17.70;;;7.00;99.90;;;;;;5058606;28;20074;-87
2023/02/14 10:11:29;;;;;;;27.17;18.23;;;7.10;99.90;;;;;;5056540;28;20041;-87
2023/02/14 10:14:02;;;;;;;29.20;17.67;;;7.20;99.90;;;;;;5045111;28;20373;-88
2023/02/14 10:16:41;;;;;;;25.02;17.58;;;7.30;99.90;;;;;;5058315;28;20032;-89
2023/02/14 10:19:18;;;;;;;28.83;17.42;;;7.30;99.90;;;;;;5060371;28;20032;-86
2023/02/14 10:21:56;;;;;;;36.15;17.95;;;7.40;99.90;;;;;;5078283;28;20064;-88
2023/02/14 10:24:31;;;;;;;24.48;17.15;;;7.60;99.90;;;;;;5058301;28;20094;-88
2023/02/14 10:27:16;;;;;;;25.92;17.17;;;7.70;99.90;;;;;;5064472;28;20017;-88
2023/02/14 10:29:42;;;;;;;25.40;16.08;;;7.80;99.90;;;;;;5061978;28;20039;-88
2023/02/14 10:32:14;;;;;;;24.98;16.27;;;7.90;99.90;;;;;;5044639;28;20115;-89
2023/02/14 10:34:55;;;;;;;30.75;18.48;;;8.00;99.90;;;;;;5079498;28;20033;-88
2023/02/14 10:37:48;;;;;;;26.23;17.48;;;8.10;99.90;;;;;;5065616;28;20063;-88
2023/02/14 10:40:19;;;;;;;26.73;17.63;;;8.20;99.90;;;;;;5082054;28;20039;-88
2023/02/14 10:42:54;;;;;;;26.77;17.02;;;8.30;99.90;;;;;;5063212;28;20073;-88
2023/02/14 10:45:34;;;;;;;23.55;15.85;;;8.40;99.90;;;;;;5062731;28;20493;-88
2023/02/14 10:48:15;;;;;;;24.73;17.42;;;8.50;99.90;;;;;;5085914;28;20040;-88
2023/02/14 10:51:00;;;;;;;;;;;8.60;99.90;;;;;;5077032;28;20028;-88
2023/02/14 10:53:40;;;;;;;23.52;16.65;;;8.70;99.90;;;;;;5072269;28;19908;-88
2023/02/14 10:56:30;;;;;;;21.92;16.42;;;8.90;99.90;;;;;;5055637;28;20400;-88
2023/02/14 10:58:58;;;;;;;22.63;16.10;;;8.90;99.90;;;;;;5061329;28;20044;-87
2023/02/14 11:01:24;;;;;;;26.15;16.77;;;9.10;99.90;;;;;;5044498;28;20028;-87
2023/02/14 11:04:05;;;;;;;24.77;17.33;;;9.20;99.90;;;;;;5083311;28;20480;-88
2023/02/14 11:06:31;;;;;;;;;;;9.30;99.90;;;;;;5077134;28;20115;-88
2023/02/14 11:08:57;;;;;;;24.60;16.73;;;9.40;99.90;;;;;;5091781;28;20249;-89
2023/02/14 11:11:33;;;;;;;21.48;16.08;;;9.50;99.90;;;;;;5063939;28;20040;-88
2023/02/14 11:14:16;;;;;;;24.40;16.30;;;9.60;99.90;;;;;;5087882;28;20043;-86
2023/02/14 11:16:42;;;;;;;27.35;17.98;;;9.70;99.90;;;;;;5060438;28;20024;-87
2023/02/14 11:19:14;;;;;;;24.95;16.50;;;9.90;99.90;;;;;;5089715;28;20075;-89
2023/02/14 11:21:42;;;;;;;21.33;15.25;;;10.00;99.90;;;;;;5062800;28;20032;-89
2023/02/14 11:24:24;;;;;;;24.08;15.85;;;10.20;99.90;;;;;;5085373;28;20029;-91
2023/02/14 11:26:51;;;;;;;21.60;15.27;;;10.30;99.90;;;;;;5061188;28;20044;-89
2023/02/14 11:29:26;;;;;;;23.92;16.75;;;10.40;99.90;;;;;;5046905;28;20059;-89
2023/02/14 11:31:53;;;;;;;22.30;15.43;;;10.50;99.90;;;;;;5062005;28;20415;-88
2023/02/14 11:34:43;;;;;;;20.90;15.88;;;10.70;99.90;;;;;;5075912;28;20024;-88
2023/02/14 11:37:28;;;;;;;21.98;15.13;;;10.80;99.90;;;;;;5072341;28;20093;-88
2023/02/14 11:39:57;;;;;;;23.13;16.35;;;10.90;99.90;;;;;;5069261;28;20399;-88
2023/02/14 11:42:44;;;;;;;23.80;14.93;;;11.00;99.90;;;;;;5058552;28;20024;-87
2023/02/14 11:45:28;;;;;;;20.63;15.45;;;11.10;99.90;;;;;;5088373;28;20021;-88
2023/02/14 11:48:17;;;;;;;22.83;14.75;;;11.30;99.90;;;;;;5083289;28;20032;-87
2023/02/14 11:51:15;;;;;;;21.13;13.95;;;11.40;99.90;;;;;;5091776;28;20041;-87
2023/02/14 11:53:52;;;;;;;22.45;14.38;;;11.60;99.90;;;;;;5080167;28;20028;-88
2023/02/14 11:56:20;;;;;;;21.75;15.38;;;11.70;99.90;;;;;;5051428;28;20127;-89
2023/02/14 11:58:55;;;;;;;18.98;13.48;;;11.80;99.90;;;;;;5020560;28;20025;-89
2023/02/14 12:01:29;;;;;;;18.48;12.77;;;12.00;99.90;;;;;;5037255;28;20064;-88
2023/02/14 12:04:00;;;;;;;18.88;13.07;;;12.10;99.90;;;;;;5073738;28;20035;-88
2023/02/14 12:06:35;;;;;;;22.63;14.75;;;12.20;99.90;;;;;;5041947;28;20025;-88
2023/02/14 12:09:23;;;;;;;20.77;14.60;;;12.30;99.90;;;;;;5055750;28;20033;-89
2023/02/14 12:12:00;;;;;;;21.85;15.27;;;12.50;99.90;;;;;;5051277;28;20074;-89
2023/02/14 12:14:35;;;;;;;20.10;13.75;;;12.60;99.90;;;;;;5047319;28;20037;-89
2023/02/14 12:17:13;;;;;;;19.33;14.13;;;12.70;99.90;;;;;;5042963;28;20029;-89
2023/02/14 12:19:47;;;;;;;20.50;13.93;;;12.80;99.90;;;;;;5040601;28;20025;-89
2023/02/14 12:22:20;;;;;;;18.73;13.63;;;12.90;99.90;;;;;;5049240;28;20096;-89
2023/02/14 12:25:19;;;;;;;20.67;14.45;;;13.00;99.90;;;;;;5051217;28;20047;-89
2023/02/14 12:27:54;;;;;;;18.50;13.35;;;13.10;99.90;;;;;;5026691;28;20036;-89
2023/02/14 12:30:22;;;;;;;19.80;13.65;;;13.20;99.90;;;;;;5039651;28;20063;-88
2023/02/14 12:32:58;;;;;;;19.63;13.32;;;13.30;99.90;;;;;;5051265;28;20024;-89
2023/02/14 12:35:48;;;;;;;18.17;13.30;;;13.40;99.90;;;;;;5050475;28;20078;-88
2023/02/14 12:38:37;;;;;;;17.15;12.95;;;13.40;99.90;;;;;;5070689;28;20025;-88
2023/02/14 12:41:22;;;;;;;17.67;13.43;;;13.50;99.90;;;;;;5044352;28;20116;-88
2023/02/14 12:44:10;;;;;;;21.38;13.27;;;13.60;99.90;;;;;;5081689;28;20092;-87
2023/02/14 12:47:01;;;;;;;20.25;13.38;;;13.70;99.90;;;;;;5061797;28;20036;-87
2023/02/14 12:49:48;;;;;;;17.77;13.75;;;13.90;99.90;;;;;;5083218;28;20048;-88
2023/02/14 12:52:46;;;;;;;20.08;12.85;;;13.90;99.90;;;;;;5099265;28;20023;-89
2023/02/14 12:55:32;;;;;;;19.48;13.35;;;14.00;99.90;;;;;;5094321;28;20040;-89
2023/02/14 12:58:26;;;;;;;18.90;12.68;;;14.10;99.90;;;;;;5102024;28;20048;-87
2023/02/14 13:01:10;;;;;;;17.45;13.32;;;14.20;99.90;;;;;;5097283;28;20016;-89
2023/02/14 13:03:49;;;;;;;16.58;12.80;;;14.30;99.90;;;;;;5082418;28;20028;-88
2023/02/14 13:06:27;;;;;;;17.52;13.68;;;14.30;99.90;;;;;;5093773;28;20359;-86
2023/02/14 13:09:47;;;;;;;18.08;13.52;;;14.40;99.90;;;;;;5075322;28;20058;-88
2023/02/14 13:12:33;;;;;;;18.42;14.20;;;14.50;99.90;;;;;;5012714;28;20037;-88
2023/02/14 13:15:08;;;;;;;21.98;13.75;;;14.60;99.90;;;;;;5003685;28;20580;-88
2023/02/14 13:17:43;;;;;;;18.65;12.98;;;14.70;99.90;;;;;;5054547;28;20036;-87
2023/02/14 13:20:31;;;;;;;18.70;13.75;;;14.70;99.90;;;;;;5062569;28;20028;-86
2023/02/14 13:23:02;;;;;;;16.60;13.32;;;14.80;99.90;;;;;;5083530;28;20064;-88
2023/02/14 13:25:33;;;;;;;19.08;12.95;;;14.90;99.90;;;;;;5059824;28;20024;-87
2023/02/14 13:28:01;;;;;;;;;;;15.00;99.90;;;;;;5075867;28;20035;-88
2023/02/14 13:30:41;;;;;;;20.88;13.48;;;15.00;99.90;;;;;;5068912;28;19999;-87
2023/02/14 13:33:35;;;;;;;17.70;12.25;;;15.10;99.90;;;;;;5059011;28;20020;-88
2023/02/14 13:36:06;;;;;;;16.95;12.75;;;15.10;99.90;;;;;;5049656;28;20062;-87
2023/02/14 13:38:41;;;;;;;19.20;13.55;;;15.20;98.90;;;;;;5057400;28;20464;-86